Etusivu
METAR-TAF:

METAR-TAF

Lentoasemat :

Tabas, Iran

Leveyspiiri: 33-36N, Pituuspiiri: 056-55E, korkeus merenpinnasta: 710 m

Tämänhetkinen sää

Tämä raportti tehtiin 2 tuntia ja 13 minuuttia sitten, kello 07.00 UTC
Tuuli 4 kn lännestä/luoteesta
Lämpötila 20°C
Kosteus 43%
Ilmanpaine 1015 hPa

METAR: OIMT 250700Z AUTO 29004KT //// // ////// 20/07 Q1015

Aika: 12:43 (09:13 UTC)


TAF: puuttuu

Säähavainnot ja -ennusteet yli 4000 lentoasemalta (METAR- ja TAF-raportit).

Käytössä olevat sääasemat on merkitty karttaan keltaisilla ja punaisilla pisteillä.

Aseta hiiri pisteen päälle nähdäksesi sääaseman nimen.

Klikkaa sitten nähdäksesi säähavainnot ja -ennusteet.

Kartan vaihtaminen: klikkaa mustalla rastilla varustettuja vihreitä pisteitä, niin voit zoomata sisään; viivalla varustettua vihreää pistettä, niin voit zoomata ulos tai vihreitä nuolia, niin pääset viereisille kartoille.


METAR-TAF: